sensor_id;sensor_type;location;lat;lon;timestamp;pressure;altitude;pressure_sealevel;temperature;humidity
37298;BME280;30517;51.932;4.278;2023-05-14T00:01:02;102110.19;;;19.05;55.21
37298;BME280;30517;51.932;4.278;2023-05-14T00:03:43;102137.59;;;19.17;55.25
37298;BME280;30517;51.932;4.278;2023-05-14T00:06:24;102111.94;;;19.06;55.10
37298;BME280;30517;51.932;4.278;2023-05-14T00:09:06;102131.47;;;19.11;55.31
37298;BME280;30517;51.932;4.278;2023-05-14T00:11:46;102124.34;;;19.10;55.37
37298;BME280;30517;51.932;4.278;2023-05-14T00:14:27;102116.38;;;19.07;55.26
37298;BME280;30517;51.932;4.278;2023-05-14T00:17:08;102097.88;;;18.94;55.24
37298;BME280;30517;51.932;4.278;2023-05-14T00:19:49;102119.16;;;19.00;55.25
37298;BME280;30517;51.932;4.278;2023-05-14T00:22:30;102097.13;;;18.86;55.32
37298;BME280;30517;51.932;4.278;2023-05-14T00:25:11;102084.78;;;18.77;55.10
37298;BME280;30517;51.932;4.278;2023-05-14T00:27:52;102116.59;;;18.93;55.29
37298;BME280;30517;51.932;4.278;2023-05-14T00:30:33;102100.66;;;18.88;55.35
37298;BME280;30517;51.932;4.278;2023-05-14T00:33:14;102110.53;;;18.83;55.38
37298;BME280;30517;51.932;4.278;2023-05-14T00:35:55;102107.81;;;18.86;55.13
37298;BME280;30517;51.932;4.278;2023-05-14T00:38:36;102100.88;;;18.74;55.32
37298;BME280;30517;51.932;4.278;2023-05-14T00:41:16;102099.09;;;18.75;55.15
37298;BME280;30517;51.932;4.278;2023-05-14T00:43:57;102110.69;;;18.72;55.20
37298;BME280;30517;51.932;4.278;2023-05-14T00:46:38;102115.13;;;18.75;55.31
37298;BME280;30517;51.932;4.278;2023-05-14T00:49:19;102112.47;;;18.72;55.20
37298;BME280;30517;51.932;4.278;2023-05-14T00:52:00;102108.94;;;18.70;55.25
37298;BME280;30517;51.932;4.278;2023-05-14T00:54:41;102088.66;;;18.58;55.50
37298;BME280;30517;51.932;4.278;2023-05-14T00:57:22;102091.34;;;18.56;55.26
37298;BME280;30517;51.932;4.278;2023-05-14T01:00:04;102079.81;;;18.51;55.27
37298;BME280;30517;51.932;4.278;2023-05-14T01:02:45;102082.56;;;18.48;55.20
37298;BME280;30517;51.932;4.278;2023-05-14T01:05:31;102084.28;;;18.52;55.05
37298;BME280;30517;51.932;4.278;2023-05-14T01:15:01;102087.94;;;18.45;55.48
37298;BME280;30517;51.932;4.278;2023-05-14T01:17:51;102096.84;;;18.46;55.31
37298;BME280;30517;51.932;4.278;2023-05-14T01:20:33;102047.44;;;18.16;55.24
37298;BME280;30517;51.932;4.278;2023-05-14T01:23:14;102051.91;;;18.15;55.26
37298;BME280;30517;51.932;4.278;2023-05-14T01:25:54;102099.66;;;18.35;55.65
37298;BME280;30517;51.932;4.278;2023-05-14T01:28:36;102076.75;;;18.19;55.20
37298;BME280;30517;51.932;4.278;2023-05-14T01:31:19;102091.69;;;18.33;55.19
37298;BME280;30517;51.932;4.278;2023-05-14T01:34:07;102087.25;;;18.32;55.35
37298;BME280;30517;51.932;4.278;2023-05-14T01:36:50;102088.16;;;18.30;55.45
37298;BME280;30517;51.932;4.278;2023-05-14T01:39:34;102084.63;;;18.28;55.48
37298;BME280;30517;51.932;4.278;2023-05-14T01:42:16;102049.28;;;18.10;55.28
37298;BME280;30517;51.932;4.278;2023-05-14T01:44:58;102072.25;;;18.22;55.24
37298;BME280;30517;51.932;4.278;2023-05-14T01:47:39;102078.50;;;18.21;55.17
37298;BME280;30517;51.932;4.278;2023-05-14T01:50:19;102031.72;;;17.94;55.23
37298;BME280;30517;51.932;4.278;2023-05-14T01:53:00;102036.19;;;17.92;55.38
37298;BME280;30517;51.932;4.278;2023-05-14T01:55:41;102075.94;;;18.13;55.24
37298;BME280;30517;51.932;4.278;2023-05-14T01:58:22;102062.69;;;18.07;55.32
37298;BME280;30517;51.932;4.278;2023-05-14T02:01:03;102062.63;;;18.09;55.50
37298;BME280;30517;51.932;4.278;2023-05-14T02:03:44;102054.69;;;18.06;55.40
37298;BME280;30517;51.932;4.278;2023-05-14T02:06:25;102043.19;;;18.01;55.41
37298;BME280;30517;51.932;4.278;2023-05-14T02:09:06;102054.72;;;18.03;55.52
37298;BME280;30517;51.932;4.278;2023-05-14T02:11:47;102045.88;;;17.99;55.30
37298;BME280;30517;51.932;4.278;2023-05-14T02:14:27;102023.88;;;17.82;55.39
37298;BME280;30517;51.932;4.278;2023-05-14T02:17:08;102047.75;;;17.94;55.46
37298;BME280;30517;51.932;4.278;2023-05-14T02:19:49;102041.63;;;17.84;55.72
37298;BME280;30517;51.932;4.278;2023-05-14T02:22:30;102036.34;;;17.78;55.82
37298;BME280;30517;51.932;4.278;2023-05-14T02:25:11;102064.75;;;17.85;55.57
37298;BME280;30517;51.932;4.278;2023-05-14T02:27:52;102058.56;;;17.85;55.48
37298;BME280;30517;51.932;4.278;2023-05-14T02:30:33;102004.69;;;17.49;55.53
37298;BME280;30517;51.932;4.278;2023-05-14T02:33:13;102059.47;;;17.81;55.61
37298;BME280;30517;51.932;4.278;2023-05-14T02:35:54;102055.94;;;17.79;55.55
37298;BME280;30517;51.932;4.278;2023-05-14T02:38:35;102064.84;;;17.76;55.71
37298;BME280;30517;51.932;4.278;2023-05-14T02:41:16;102043.66;;;17.62;55.37
37298;BME280;30517;51.932;4.278;2023-05-14T02:43:57;102056.00;;;17.71;55.73
37298;BME280;30517;51.932;4.278;2023-05-14T02:46:38;102033.91;;;17.61;55.55
37298;BME280;30517;51.932;4.278;2023-05-14T02:49:19;102041.91;;;17.60;55.54
37298;BME280;30517;51.932;4.278;2023-05-14T02:52:00;102041.91;;;17.60;55.72
37298;BME280;30517;51.932;4.278;2023-05-14T02:54:41;102051.66;;;17.62;55.52
37298;BME280;30517;51.932;4.278;2023-05-14T02:57:22;102043.69;;;17.61;55.53
37298;BME280;30517;51.932;4.278;2023-05-14T03:00:03;101994.19;;;17.35;55.41
37298;BME280;30517;51.932;4.278;2023-05-14T03:02:44;102027.78;;;17.52;55.65
37298;BME280;30517;51.932;4.278;2023-05-14T03:05:25;102036.66;;;17.55;55.50
37298;BME280;30517;51.932;4.278;2023-05-14T03:08:06;102017.28;;;17.38;55.37
37298;BME280;30517;51.932;4.278;2023-05-14T03:10:49;102045.59;;;17.51;55.74
37298;BME280;30517;51.932;4.278;2023-05-14T03:13:30;102040.25;;;17.50;55.94
37298;BME280;30517;51.932;4.278;2023-05-14T03:16:11;102047.41;;;17.47;55.94
37298;BME280;30517;51.932;4.278;2023-05-14T03:18:52;102046.53;;;17.44;55.68
37298;BME280;30517;51.932;4.278;2023-05-14T03:21:33;102019.16;;;17.30;55.70
37298;BME280;30517;51.932;4.278;2023-05-14T03:24:14;102017.38;;;17.30;55.64
37298;BME280;30517;51.932;4.278;2023-05-14T03:26:54;102030.66;;;17.35;55.76
37298;BME280;30517;51.932;4.278;2023-05-14T03:29:36;102003.28;;;17.20;55.77
37298;BME280;30517;51.932;4.278;2023-05-14T03:32:17;101997.94;;;17.20;55.81
37298;BME280;30517;51.932;4.278;2023-05-14T03:34:58;102019.16;;;17.30;56.17
37298;BME280;30517;51.932;4.278;2023-05-14T03:37:39;102018.25;;;17.31;56.14
37298;BME280;30517;51.932;4.278;2023-05-14T03:40:20;102018.28;;;17.28;56.15
37298;BME280;30517;51.932;4.278;2023-05-14T03:43:01;101954.75;;;16.91;55.70
37298;BME280;30517;51.932;4.278;2023-05-14T03:45:43;102011.28;;;17.20;56.29
37298;BME280;30517;51.932;4.278;2023-05-14T03:48:24;101976.88;;;16.99;55.79
37298;BME280;30517;51.932;4.278;2023-05-14T03:51:05;101989.28;;;17.00;55.87
37298;BME280;30517;51.932;4.278;2023-05-14T03:53:46;102023.69;;;17.20;55.94
37298;BME280;30517;51.932;4.278;2023-05-14T03:56:27;102023.75;;;17.18;55.97
37298;BME280;30517;51.932;4.278;2023-05-14T03:59:07;102018.41;;;17.17;56.21
37298;BME280;30517;51.932;4.278;2023-05-14T04:01:49;102022.00;;;17.16;56.03
37298;BME280;30517;51.932;4.278;2023-05-14T04:04:29;102019.34;;;17.11;55.79
37298;BME280;30517;51.932;4.278;2023-05-14T04:07:10;102028.28;;;17.10;56.03
37298;BME280;30517;51.932;4.278;2023-05-14T04:09:51;101988.50;;;16.89;55.93
37298;BME280;30517;51.932;4.278;2023-05-14T04:12:32;102031.84;;;17.06;56.17
37298;BME280;30517;51.932;4.278;2023-05-14T04:15:13;102033.63;;;17.06;56.01
37298;BME280;30517;51.932;4.278;2023-05-14T04:17:53;102040.75;;;17.03;55.93
37298;BME280;30517;51.932;4.278;2023-05-14T04:20:34;102036.34;;;17.01;56.08
37298;BME280;30517;51.932;4.278;2023-05-14T04:23:15;101992.16;;;16.78;55.94
37298;BME280;30517;51.932;4.278;2023-05-14T04:25:57;102037.25;;;16.98;55.84
37298;BME280;30517;51.932;4.278;2023-05-14T04:28:38;102030.19;;;16.96;56.05
37298;BME280;30517;51.932;4.278;2023-05-14T04:31:19;101966.59;;;16.54;56.31
37298;BME280;30517;51.932;4.278;2023-05-14T04:34:00;102036.44;;;16.92;55.95
37298;BME280;30517;51.932;4.278;2023-05-14T04:36:41;102032.97;;;16.85;56.33
37298;BME280;30517;51.932;4.278;2023-05-14T04:39:21;102040.94;;;16.88;56.23
37298;BME280;30517;51.932;4.278;2023-05-14T04:42:02;102046.28;;;16.84;56.27
37298;BME280;30517;51.932;4.278;2023-05-14T04:44:43;102048.06;;;16.85;56.17
37298;BME280;30517;51.932;4.278;2023-05-14T04:47:24;102037.41;;;16.85;56.15
37298;BME280;30517;51.932;4.278;2023-05-14T04:50:06;102028.56;;;16.83;56.31
37298;BME280;30517;51.932;4.278;2023-05-14T04:52:48;102001.13;;;16.65;56.55
37298;BME280;30517;51.932;4.278;2023-05-14T04:55:29;102021.50;;;16.72;56.54
37298;BME280;30517;51.932;4.278;2023-05-14T04:58:10;102035.69;;;16.74;56.01
37298;BME280;30517;51.932;4.278;2023-05-14T05:00:57;102034.81;;;16.77;56.19
37298;BME280;30517;51.932;4.278;2023-05-14T05:03:38;102022.41;;;16.68;56.69
37298;BME280;30517;51.932;4.278;2023-05-14T05:06:19;102044.56;;;16.75;56.22
37298;BME280;30517;51.932;4.278;2023-05-14T05:08:59;102041.09;;;16.67;56.38
37298;BME280;30517;51.932;4.278;2023-05-14T05:11:40;102052.56;;;16.73;55.90
37298;BME280;30517;51.932;4.278;2023-05-14T05:14:22;102028.72;;;16.61;56.27
37298;BME280;30517;51.932;4.278;2023-05-14T05:17:03;102053.50;;;16.69;56.42
37298;BME280;30517;51.932;4.278;2023-05-14T05:19:44;102046.41;;;16.67;56.35
37298;BME280;30517;51.932;4.278;2023-05-14T05:22:27;102053.50;;;16.68;56.30
37298;BME280;30517;51.932;4.278;2023-05-14T05:25:08;102051.75;;;16.67;55.88
37298;BME280;30517;51.932;4.278;2023-05-14T05:27:51;102039.38;;;16.61;56.49
37298;BME280;30517;51.932;4.278;2023-05-14T05:30:32;101942.16;;;16.03;55.95
37298;BME280;30517;51.932;4.278;2023-05-14T05:33:13;102033.13;;;16.60;55.99
37298;BME280;30517;51.932;4.278;2023-05-14T05:35:54;102042.91;;;16.60;56.35
37298;BME280;30517;51.932;4.278;2023-05-14T05:38:34;102049.09;;;16.62;56.20
37298;BME280;30517;51.932;4.278;2023-05-14T05:41:15;102046.56;;;16.48;56.06
37298;BME280;30517;51.932;4.278;2023-05-14T05:43:56;102015.56;;;16.40;56.47
37298;BME280;30517;51.932;4.278;2023-05-14T05:46:37;102055.38;;;16.56;55.89
37298;BME280;30517;51.932;4.278;2023-05-14T05:49:18;102040.41;;;16.40;56.14
37298;BME280;30517;51.932;4.278;2023-05-14T05:51:59;102059.81;;;16.56;56.12
37298;BME280;30517;51.932;4.278;2023-05-14T05:54:39;102062.47;;;16.57;55.87
37298;BME280;30517;51.932;4.278;2023-05-14T05:57:20;102020.91;;;16.35;55.99
37298;BME280;30517;51.932;4.278;2023-05-14T06:00:02;102039.47;;;16.44;56.27
37298;BME280;30517;51.932;4.278;2023-05-14T06:03:27;102033.34;;;16.34;56.28
37298;BME280;30517;51.932;4.278;2023-05-14T06:09:10;102070.44;;;16.57;56.53
37298;BME280;30517;51.932;4.278;2023-05-14T06:11:52;102073.13;;;16.57;55.94
37298;BME280;30517;51.932;4.278;2023-05-14T06:14:33;102066.94;;;16.54;56.31
37298;BME280;30517;51.932;4.278;2023-05-14T06:17:13;102054.56;;;16.44;56.23
37298;BME280;30517;51.932;4.278;2023-05-14T06:19:54;102055.47;;;16.41;56.63
37298;BME280;30517;51.932;4.278;2023-05-14T06:22:35;102058.16;;;16.43;56.54
37298;BME280;30517;51.932;4.278;2023-05-14T06:25:17;102075.81;;;16.56;56.55
37298;BME280;30517;51.932;4.278;2023-05-14T06:27:58;102055.47;;;16.47;56.80
37298;BME280;30517;51.932;4.278;2023-05-14T06:30:39;102016.66;;;16.12;56.95
37298;BME280;30517;51.932;4.278;2023-05-14T06:33:20;102070.50;;;16.50;56.71
37298;BME280;30517;51.932;4.278;2023-05-14T06:36:08;101998.03;;;16.06;56.61
37298;BME280;30517;51.932;4.278;2023-05-14T06:38:49;102082.94;;;16.51;56.31
37298;BME280;30517;51.932;4.278;2023-05-14T06:41:30;102084.69;;;16.52;56.58
37298;BME280;30517;51.932;4.278;2023-05-14T06:44:11;102041.34;;;16.34;56.31
37298;BME280;30517;51.932;4.278;2023-05-14T06:46:52;102090.91;;;16.54;56.61
37298;BME280;30517;51.932;4.278;2023-05-14T06:49:33;102079.38;;;16.53;56.30
37298;BME280;30517;51.932;4.278;2023-05-14T06:52:14;102071.44;;;16.46;56.23
37298;BME280;30517;51.932;4.278;2023-05-14T06:54:55;102063.44;;;16.44;56.82
37298;BME280;30517;51.932;4.278;2023-05-14T06:57:36;102074.03;;;16.53;56.52
37298;BME280;30517;51.932;4.278;2023-05-14T07:00:17;102078.47;;;16.54;56.31
37298;BME280;30517;51.932;4.278;2023-05-14T07:02:58;102076.69;;;16.55;56.29
37298;BME280;30517;51.932;4.278;2023-05-14T07:05:39;102072.25;;;16.55;56.38
37298;BME280;30517;51.932;4.278;2023-05-14T07:08:20;102047.50;;;16.41;56.42
37298;BME280;30517;51.932;4.278;2023-05-14T07:11:01;102070.47;;;16.56;56.98
37298;BME280;30517;51.932;4.278;2023-05-14T07:13:41;102060.69;;;16.55;56.82
37298;BME280;30517;51.932;4.278;2023-05-14T07:16:22;102041.22;;;16.48;56.63
37298;BME280;30517;51.932;4.278;2023-05-14T07:19:03;102035.91;;;16.48;56.88
37298;BME280;30517;51.932;4.278;2023-05-14T07:21:44;102045.63;;;16.54;56.93
37298;BME280;30517;51.932;4.278;2023-05-14T07:24:25;102034.13;;;16.50;56.57
37298;BME280;30517;51.932;4.278;2023-05-14T07:27:05;102028.81;;;16.46;56.85
37298;BME280;30517;51.932;4.278;2023-05-14T07:29:48;102026.22;;;16.40;56.82
37298;BME280;30517;51.932;4.278;2023-05-14T07:32:29;102022.59;;;16.48;56.45
37298;BME280;30517;51.932;4.278;2023-05-14T07:35:10;102048.28;;;16.52;56.46
37298;BME280;30517;51.932;4.278;2023-05-14T07:37:51;102051.78;;;16.60;56.37
37298;BME280;30517;51.932;4.278;2023-05-14T07:40:32;102034.94;;;16.57;56.65
37298;BME280;30517;51.932;4.278;2023-05-14T07:43:13;102040.28;;;16.58;56.38
37298;BME280;30517;51.932;4.278;2023-05-14T07:45:54;102049.09;;;16.62;56.40
37298;BME280;30517;51.932;4.278;2023-05-14T07:48:35;101984.59;;;16.25;56.24
37298;BME280;30517;51.932;4.278;2023-05-14T07:51:16;101995.16;;;16.35;56.46
37298;BME280;30517;51.932;4.278;2023-05-14T07:53:57;102002.28;;;16.36;56.96
37298;BME280;30517;51.932;4.278;2023-05-14T07:56:38;102010.16;;;16.49;57.15
37298;BME280;30517;51.932;4.278;2023-05-14T07:59:18;102013.72;;;16.48;56.90
37298;BME280;30517;51.932;4.278;2023-05-14T08:01:59;102044.63;;;16.67;57.23
37298;BME280;30517;51.932;4.278;2023-05-14T08:04:40;102011.94;;;16.47;56.86
37298;BME280;30517;51.932;4.278;2023-05-14T08:07:21;102016.31;;;16.52;57.06
37298;BME280;30517;51.932;4.278;2023-05-14T08:10:02;102030.44;;;16.65;56.71
37298;BME280;30517;51.932;4.278;2023-05-14T08:12:43;102015.38;;;16.59;56.63
37298;BME280;30517;51.932;4.278;2023-05-14T08:15:24;102040.16;;;16.72;56.72
37298;BME280;30517;51.932;4.278;2023-05-14T08:18:05;102023.38;;;16.59;56.57
37298;BME280;30517;51.932;4.278;2023-05-14T08:20:46;102034.88;;;16.66;56.79
37298;BME280;30517;51.932;4.278;2023-05-14T08:23:27;102021.63;;;16.58;57.02
37298;BME280;30517;51.932;4.278;2023-05-14T08:26:08;102045.53;;;16.66;57.11
37298;BME280;30517;51.932;4.278;2023-05-14T08:28:49;102033.97;;;16.67;56.77
37298;BME280;30517;51.932;4.278;2023-05-14T08:31:29;102019.81;;;16.60;56.88
37298;BME280;30517;51.932;4.278;2023-05-14T08:34:10;102047.22;;;16.83;56.66
37298;BME280;30517;51.932;4.278;2023-05-14T08:36:51;102038.34;;;16.80;56.75
37298;BME280;30517;51.932;4.278;2023-05-14T08:39:32;102025.91;;;16.73;56.50
37298;BME280;30517;51.932;4.278;2023-05-14T08:42:14;102034.75;;;16.81;56.72
37298;BME280;30517;51.932;4.278;2023-05-14T08:45:01;102016.13;;;16.80;56.90
37298;BME280;30517;51.932;4.278;2023-05-14T08:47:45;102021.38;;;16.91;56.89
37298;BME280;30517;51.932;4.278;2023-05-14T08:50:27;101953.31;;;16.53;56.55
37298;BME280;30517;51.932;4.278;2023-05-14T08:53:09;102017.75;;;16.95;56.78
37298;BME280;30517;51.932;4.278;2023-05-14T08:55:51;101997.44;;;16.83;56.75
37298;BME280;30517;51.932;4.278;2023-05-14T08:58:33;102000.13;;;16.83;56.90
37298;BME280;30517;51.932;4.278;2023-05-14T09:01:14;102015.13;;;16.92;56.98
37298;BME280;30517;51.932;4.278;2023-05-14T09:03:55;102016.84;;;16.99;57.30
37298;BME280;30517;51.932;4.278;2023-05-14T09:06:36;101991.22;;;16.84;57.23
37298;BME280;30517;51.932;4.278;2023-05-14T09:09:17;101980.56;;;16.84;57.32
37298;BME280;30517;51.932;4.278;2023-05-14T09:12:01;102016.78;;;17.05;56.85
37298;BME280;30517;51.932;4.278;2023-05-14T09:14:43;102014.97;;;17.06;57.14
37298;BME280;30517;51.932;4.278;2023-05-14T09:17:25;102014.06;;;17.08;57.10
37298;BME280;30517;51.932;4.278;2023-05-14T09:20:11;102015.81;;;17.09;56.81
37298;BME280;30517;51.932;4.278;2023-05-14T09:22:52;102014.03;;;17.11;57.22
37298;BME280;30517;51.932;4.278;2023-05-14T09:25:33;101999.00;;;17.06;57.17
37298;BME280;30517;51.932;4.278;2023-05-14T09:28:16;102002.50;;;17.12;57.27
37298;BME280;30517;51.932;4.278;2023-05-14T09:30:58;101998.94;;;17.10;57.14
37298;BME280;30517;51.932;4.278;2023-05-14T09:33:38;102002.50;;;17.12;56.91
37298;BME280;30517;51.932;4.278;2023-05-14T09:36:20;102000.66;;;17.14;57.05
37298;BME280;30517;51.932;4.278;2023-05-14T09:39:03;102001.50;;;17.21;57.55
37298;BME280;30517;51.932;4.278;2023-05-14T09:41:44;101991.81;;;17.12;57.27
37298;BME280;30517;51.932;4.278;2023-05-14T09:44:27;101993.53;;;17.18;57.48
37298;BME280;30517;51.932;4.278;2023-05-14T09:47:08;101989.09;;;17.17;57.12
37298;BME280;30517;51.932;4.278;2023-05-14T09:49:49;102004.91;;;17.31;57.33
37298;BME280;30517;51.932;4.278;2023-05-14T09:52:29;101994.34;;;17.24;57.15
37298;BME280;30517;51.932;4.278;2023-05-14T09:55:10;102004.91;;;17.34;57.13
37298;BME280;30517;51.932;4.278;2023-05-14T09:57:51;102002.13;;;17.41;56.95
37298;BME280;30517;51.932;4.278;2023-05-14T10:00:32;101981.75;;;17.37;57.16
37298;BME280;30517;51.932;4.278;2023-05-14T10:03:14;101997.56;;;17.53;56.88
37298;BME280;30517;51.932;4.278;2023-05-14T10:05:57;101985.97;;;17.52;57.17
37298;BME280;30517;51.932;4.278;2023-05-14T10:08:43;101983.31;;;17.52;56.97
37298;BME280;30517;51.932;4.278;2023-05-14T10:11:25;101976.22;;;17.53;56.79
37298;BME280;30517;51.932;4.278;2023-05-14T10:14:13;101977.00;;;17.59;57.05
37298;BME280;30517;51.932;4.278;2023-05-14T10:16:58;101991.13;;;17.69;56.81
37298;BME280;30517;51.932;4.278;2023-05-14T10:19:40;101998.19;;;17.72;56.70
37298;BME280;30517;51.932;4.278;2023-05-14T10:22:22;101985.75;;;17.72;56.85
37298;BME280;30517;51.932;4.278;2023-05-14T10:25:05;101956.53;;;17.60;56.69
37298;BME280;30517;51.932;4.278;2023-05-14T10:27:47;101989.22;;;17.79;56.71
37298;BME280;30517;51.932;4.278;2023-05-14T10:30:28;101968.81;;;17.75;56.64
37298;BME280;30517;51.932;4.278;2023-05-14T10:33:14;101979.41;;;17.82;56.59
37298;BME280;30517;51.932;4.278;2023-05-14T10:36:02;101978.47;;;17.85;56.41
37298;BME280;30517;51.932;4.278;2023-05-14T10:38:44;101961.59;;;17.83;56.50
37298;BME280;30517;51.932;4.278;2023-05-14T10:41:24;101890.16;;;17.40;56.52
37298;BME280;30517;51.932;4.278;2023-05-14T10:44:07;101977.47;;;17.92;56.94
37298;BME280;30517;51.932;4.278;2023-05-14T10:46:49;101942.06;;;17.81;56.31
37298;BME280;30517;51.932;4.278;2023-05-14T10:49:30;101963.19;;;17.95;56.48
37298;BME280;30517;51.932;4.278;2023-05-14T10:52:11;101961.34;;;17.98;56.46
37298;BME280;30517;51.932;4.278;2023-05-14T10:54:59;101946.34;;;17.91;56.45
37298;BME280;30517;51.932;4.278;2023-05-14T10:57:42;101944.44;;;17.99;56.41
37298;BME280;30517;51.932;4.278;2023-05-14T11:00:24;101947.06;;;18.02;56.38
37298;BME280;30517;51.932;4.278;2023-05-14T11:03:07;101958.50;;;18.09;56.56
37298;BME280;30517;51.932;4.278;2023-05-14T11:05:48;101943.47;;;18.05;56.45
37298;BME280;30517;51.932;4.278;2023-05-14T11:08:29;101955.78;;;18.13;56.31
37298;BME280;30517;51.932;4.278;2023-05-14T11:11:10;101943.25;;;18.17;56.45
37298;BME280;30517;51.932;4.278;2023-05-14T11:13:52;101939.69;;;18.18;56.23
37298;BME280;30517;51.932;4.278;2023-05-14T11:16:33;101941.44;;;18.21;56.47
37298;BME280;30517;51.932;4.278;2023-05-14T11:19:14;101930.75;;;18.21;56.58
37298;BME280;30517;51.932;4.278;2023-05-14T11:21:56;101920.97;;;18.20;56.57
37298;BME280;30517;51.932;4.278;2023-05-14T11:24:38;101892.69;;;18.06;56.39
37298;BME280;30517;51.932;4.278;2023-05-14T11:27:20;101898.84;;;18.13;56.31
37298;BME280;30517;51.932;4.278;2023-05-14T11:30:03;101914.50;;;18.33;56.46
37298;BME280;30517;51.932;4.278;2023-05-14T11:32:49;101901.25;;;18.27;56.29
37298;BME280;30517;51.932;4.278;2023-05-14T11:35:31;101905.56;;;18.35;56.42
37298;BME280;30517;51.932;4.278;2023-05-14T11:38:19;101916.09;;;18.45;56.52
37298;BME280;30517;51.932;4.278;2023-05-14T11:41:00;101910.66;;;18.49;56.41
37298;BME280;30517;51.932;4.278;2023-05-14T11:43:45;101898.22;;;18.47;56.38
37298;BME280;30517;51.932;4.278;2023-05-14T11:46:26;101905.34;;;18.48;56.38
37298;BME280;30517;51.932;4.278;2023-05-14T11:49:14;101881.31;;;18.46;56.33
37298;BME280;30517;51.932;4.278;2023-05-14T11:52:00;101902.38;;;18.63;56.34
37298;BME280;30517;51.932;4.278;2023-05-14T11:54:42;101911.22;;;18.67;56.29
37298;BME280;30517;51.932;4.278;2023-05-14T11:57:23;101910.22;;;18.72;56.31
37298;BME280;30517;51.932;4.278;2023-05-14T12:00:07;101905.72;;;18.76;56.19
37298;BME280;30517;51.932;4.278;2023-05-14T12:02:48;101914.53;;;18.81;56.31
37298;BME280;30517;51.932;4.278;2023-05-14T12:05:29;101913.63;;;18.82;56.39
37298;BME280;30517;51.932;4.278;2023-05-14T12:08:26;101901.91;;;18.89;56.07
37298;BME280;30517;51.932;4.278;2023-05-14T12:11:07;101865.63;;;18.77;56.30
37298;BME280;30517;51.932;4.278;2023-05-14T12:13:51;101894.66;;;18.96;56.08
37298;BME280;30517;51.932;4.278;2023-05-14T12:16:33;101900.72;;;19.04;56.20
37298;BME280;30517;51.932;4.278;2023-05-14T12:19:18;101880.38;;;18.95;55.98
37298;BME280;30517;51.932;4.278;2023-05-14T12:22:03;101898.78;;;19.12;56.02
37298;BME280;30517;51.932;4.278;2023-05-14T12:24:55;101890.69;;;19.14;56.10
37298;BME280;30517;51.932;4.278;2023-05-14T12:27:36;101891.41;;;19.22;56.05
37298;BME280;30517;51.932;4.278;2023-05-14T12:30:17;101888.66;;;19.25;55.94
37298;BME280;30517;51.932;4.278;2023-05-14T12:32:58;101893.00;;;19.31;56.01
37298;BME280;30517;51.932;4.278;2023-05-14T12:35:39;101882.25;;;19.34;56.10
37298;BME280;30517;51.932;4.278;2023-05-14T12:38:20;101884.78;;;19.40;55.92
37298;BME280;30517;51.932;4.278;2023-05-14T12:41:01;101868.75;;;19.38;55.94
37298;BME280;30517;51.932;4.278;2023-05-14T12:43:42;101892.59;;;19.49;55.78
37298;BME280;30517;51.932;4.278;2023-05-14T12:46:25;101879.13;;;19.54;55.72
37298;BME280;30517;51.932;4.278;2023-05-14T12:49:06;101880.81;;;19.58;55.62
37298;BME280;30517;51.932;4.278;2023-05-14T12:51:47;101881.56;;;19.63;55.77
37298;BME280;30517;51.932;4.278;2023-05-14T12:54:27;101884.16;;;19.69;55.61
37298;BME280;30517;51.932;4.278;2023-05-14T12:57:08;101881.34;;;19.74;55.62
37298;BME280;30517;51.932;4.278;2023-05-14T12:59:49;101883.06;;;19.78;55.53
37298;BME280;30517;51.932;4.278;2023-05-14T13:02:30;101867.94;;;19.75;55.46
37298;BME280;30517;51.932;4.278;2023-05-14T13:05:11;101887.28;;;19.86;55.51
37298;BME280;30517;51.932;4.278;2023-05-14T13:07:52;101880.06;;;19.90;55.55
37298;BME280;30517;51.932;4.278;2023-05-14T13:10:32;101845.81;;;19.69;55.28
37298;BME280;30517;51.932;4.278;2023-05-14T13:13:14;101887.03;;;19.97;55.26
37298;BME280;30517;51.932;4.278;2023-05-14T13:15:55;101891.41;;;20.01;55.11
37298;BME280;30517;51.932;4.278;2023-05-14T13:18:36;101888.66;;;20.04;55.26
37298;BME280;30517;51.932;4.278;2023-05-14T13:21:17;101886.84;;;20.05;55.09
37298;BME280;30517;51.932;4.278;2023-05-14T13:23:58;101880.44;;;20.10;55.16
37298;BME280;30517;51.932;4.278;2023-05-14T13:26:39;101861.31;;;19.90;53.38
37298;BME280;30517;51.932;4.278;2023-05-14T13:29:19;101880.63;;;20.04;53.92
37298;BME280;30517;51.932;4.278;2023-05-14T13:32:00;101883.16;;;20.09;52.48
37298;BME280;30517;51.932;4.278;2023-05-14T13:34:41;101863.00;;;19.96;53.81
37298;BME280;30517;51.932;4.278;2023-05-14T13:37:23;101870.69;;;20.08;53.80
37298;BME280;30517;51.932;4.278;2023-05-14T13:40:05;101902.53;;;20.20;53.73
37298;BME280;30517;51.932;4.278;2023-05-14T13:42:49;101868.75;;;20.15;53.75
37298;BME280;30517;51.932;4.278;2023-05-14T13:45:30;101873.00;;;20.22;54.19
37298;BME280;30517;51.932;4.278;2023-05-14T13:48:10;101885.22;;;20.33;53.91
37298;BME280;30517;51.932;4.278;2023-05-14T13:50:51;101872.13;;;20.21;54.10
37298;BME280;30517;51.932;4.278;2023-05-14T13:53:32;101884.28;;;20.36;53.94
37298;BME280;30517;51.932;4.278;2023-05-14T13:56:13;101884.03;;;20.44;53.96
37298;BME280;30517;51.932;4.278;2023-05-14T13:58:54;101873.41;;;20.41;53.97
37298;BME280;30517;51.932;4.278;2023-05-14T14:01:34;101879.44;;;20.49;54.29
37298;BME280;30517;51.932;4.278;2023-05-14T14:06:58;101887.38;;;20.55;54.23
37298;BME280;30517;51.932;4.278;2023-05-14T14:09:39;101880.09;;;20.59;54.26
37298;BME280;30517;51.932;4.278;2023-05-14T14:12:20;101868.72;;;20.49;54.16
37298;BME280;30517;51.932;4.278;2023-05-14T14:15:01;101873.03;;;20.56;54.04
37298;BME280;30517;51.932;4.278;2023-05-14T14:17:43;101887.00;;;20.67;54.08